Time;durP1;ratioP1;P1;durP2;ratioP2;P2;SDS_P1;SDS_P2;PMS_P1;PMS_P2;Temp;Humidity;BMP_temperature;BMP_pressure;BME280_temperature;BME280_humidity;BME280_pressure;Samples;Min_cycle;Max_cycle;Signal;HPM_P1;HPM_P2
2024/02/05 00:00:14;;;;;;;2.07;1.87;;;20.30;1.00;;;;;;2611863;54;20266;-72
2024/02/05 00:02:41;;;;;;;2.43;1.70;;;20.30;1.00;;;;;;2613078;39;20863;-72
2024/02/05 00:05:10;;;;;;;2.17;2.07;;;20.30;1.00;;;;;;2612970;54;20399;-73
2024/02/05 00:07:36;;;;;;;2.37;2.00;;;20.30;1.00;;;;;;2612674;47;20429;-73
2024/02/05 00:10:08;;;;;;;1.90;1.80;;;20.30;1.00;;;;;;2612434;54;20534;-72
2024/02/05 00:12:34;;;;;;;3.80;2.20;;;20.30;1.00;;;;;;2612050;47;20420;-66
2024/02/05 00:15:00;;;;;;;2.07;1.97;;;20.30;1.00;;;;;;2612496;54;20396;-66
2024/02/05 00:17:26;;;;;;;2.30;2.13;;;20.30;1.00;;;;;;2612395;46;20202;-67
2024/02/05 00:19:54;;;;;;;2.90;1.70;;;20.30;1.00;;;;;;2612075;54;21297;-66
2024/02/05 00:22:20;;;;;;;2.43;2.10;;;20.30;1.00;;;;;;2612438;47;20414;-65
2024/02/05 00:24:45;;;;;;;1.90;1.80;;;20.30;1.00;;;;;;2612817;39;20825;-66
2024/02/05 00:27:12;;;;;;;2.07;1.97;;;20.30;1.00;;;;;;2612542;54;20157;-66
2024/02/05 00:29:37;;;;;;;2.03;1.93;;;20.30;1.00;;;;;;2612386;54;20208;-66
2024/02/05 00:32:04;;;;;;;2.27;1.97;;;20.30;1.00;;;;;;2611475;54;21315;-59
2024/02/05 00:34:30;;;;;;;1.87;1.77;;;20.30;1.00;;;;;;2612133;54;20161;-58
2024/02/05 00:36:56;;;;;;;2.73;2.53;;;20.30;1.00;;;;;;2611765;39;20856;-58
2024/02/05 00:39:23;;;;;;;4.40;2.13;;;20.30;1.00;;;;;;2612790;54;20400;-58
2024/02/05 00:41:48;;;;;;;3.40;3.10;;;20.30;1.00;;;;;;2612282;54;20555;-59
2024/02/05 00:44:14;;;;;;;2.07;1.97;;;20.30;1.00;;;;;;2611958;54;20392;-59
2024/02/05 00:46:40;;;;;;;2.13;1.90;;;20.30;1.00;;;;;;2613178;39;20577;-59
2024/02/05 00:49:06;;;;;;;2.90;2.13;;;20.30;1.00;;;;;;2611606;54;20507;-59
2024/02/05 00:51:32;;;;;;;2.57;2.37;;;20.30;1.00;;;;;;2612861;54;20178;-59
2024/02/05 00:53:58;;;;;;;2.30;2.10;;;20.30;1.00;;;;;;2612297;39;20925;-59
2024/02/05 00:56:24;;;;;;;2.60;2.27;;;20.30;1.00;;;;;;2612210;54;20416;-59
2024/02/05 00:58:50;;;;;;;1.73;1.63;;;20.30;1.00;;;;;;2611434;54;20968;-59
2024/02/05 01:01:17;;;;;;;2.07;1.87;;;20.20;1.00;;;;;;2611787;54;20402;-59
2024/02/05 01:03:43;;;;;;;2.27;1.80;;;20.20;1.00;;;;;;2612783;54;20211;-59
2024/02/05 01:06:09;;;;;;;2.40;2.20;;;20.30;1.00;;;;;;2611835;54;20427;-59
2024/02/05 01:08:35;;;;;;;2.80;2.60;;;20.30;1.00;;;;;;2611730;54;20434;-59
2024/02/05 01:11:01;;;;;;;2.60;2.40;;;20.20;1.00;;;;;;2611876;39;20837;-58
2024/02/05 01:13:27;;;;;;;2.77;2.00;;;20.30;1.00;;;;;;2611668;54;20518;-59
2024/02/05 01:15:52;;;;;;;2.30;1.87;;;20.20;1.00;;;;;;2612406;54;20408;-59
2024/02/05 01:18:18;;;;;;;2.13;1.97;;;20.30;1.00;;;;;;2612021;54;20277;-59
2024/02/05 01:20:44;;;;;;;2.30;1.87;;;20.20;1.00;;;;;;2611981;54;20150;-60
2024/02/05 01:23:10;;;;;;;2.40;1.90;;;20.30;1.00;;;;;;2611578;54;20683;-61
2024/02/05 01:25:36;;;;;;;2.27;2.00;;;20.30;1.00;;;;;;2612077;54;20941;-61
2024/02/05 01:28:03;;;;;;;2.27;2.07;;;20.20;1.00;;;;;;2611646;54;20435;-61
2024/02/05 01:30:29;;;;;;;2.33;1.90;;;20.20;1.00;;;;;;2611946;47;20205;-60
2024/02/05 01:32:55;;;;;;;2.50;1.93;;;20.20;1.00;;;;;;2612321;54;20937;-61
2024/02/05 01:35:22;;;;;;;2.10;1.87;;;20.20;1.00;;;;;;2611521;54;20391;-62
2024/02/05 01:37:48;;;;;;;2.60;2.30;;;20.20;1.00;;;;;;2611722;54;20411;-61
2024/02/05 01:40:13;;;;;;;2.73;2.53;;;20.20;1.00;;;;;;2611614;54;21038;-61
2024/02/05 01:42:40;;;;;;;2.20;1.83;;;20.20;1.00;;;;;;2612321;54;20147;-63
2024/02/05 01:45:07;;;;;;;2.10;1.90;;;20.20;1.00;;;;;;2612227;54;20154;-63
2024/02/05 01:47:37;;;;;;;3.27;3.07;;;20.20;1.00;;;;;;2611583;54;20459;-62
2024/02/05 01:50:06;;;;;;;3.03;1.90;;;20.20;1.00;;;;;;2612136;54;20424;-62
2024/02/05 01:52:36;;;;;;;2.37;2.17;;;20.20;1.00;;;;;;2611599;47;20415;-62
2024/02/05 01:55:05;;;;;;;2.77;2.20;;;20.20;1.00;;;;;;2612307;54;20429;-62
2024/02/05 01:57:32;;;;;;;2.67;2.10;;;20.20;1.00;;;;;;2611712;47;20419;-62
2024/02/05 01:59:59;;;;;;;2.53;2.00;;;20.20;1.00;;;;;;2611977;47;20396;-62
2024/02/05 02:02:26;;;;;;;2.13;1.93;;;20.20;1.00;;;;;;2611733;54;20396;-60
2024/02/05 02:04:57;;;;;;;2.53;2.10;;;20.20;1.00;;;;;;2611731;54;20431;-61
2024/02/05 02:07:23;;;;;;;2.33;2.13;;;20.20;1.00;;;;;;2611599;47;20419;-60
2024/02/05 02:09:49;;;;;;;4.03;2.20;;;20.20;1.00;;;;;;2611992;54;20462;-61
2024/02/05 02:12:16;;;;;;;2.97;2.10;;;20.20;1.00;;;;;;2611964;54;20150;-60
2024/02/05 02:14:41;;;;;;;3.73;2.30;;;20.20;1.00;;;;;;2611704;47;20526;-60
2024/02/05 02:17:07;;;;;;;2.93;2.10;;;20.20;1.00;;;;;;2611619;54;20438;-60
2024/02/05 02:19:48;;;;;;;1.77;1.67;;;20.20;1.00;;;;;;2611121;47;20176;-60
2024/02/05 02:22:37;;;;;;;2.83;1.80;;;20.20;1.00;;;;;;2612294;39;20555;-60
2024/02/05 02:25:04;;;;;;;2.20;2.00;;;20.20;1.00;;;;;;2612400;54;20420;-60
2024/02/05 02:27:30;;;;;;;2.40;2.20;;;20.20;1.00;;;;;;2611273;47;20403;-60
2024/02/05 02:29:56;;;;;;;2.63;2.00;;;20.20;1.00;;;;;;2611653;54;20392;-61
2024/02/05 02:32:46;;;;;;;4.50;2.37;;;20.20;1.00;;;;;;2611945;54;20156;-61
2024/02/05 02:35:27;;;;;;;2.40;2.20;;;20.20;1.00;;;;;;2611913;54;20411;-61
2024/02/05 02:38:05;;;;;;;2.20;2.03;;;20.20;1.00;;;;;;2611599;47;21635;-62
2024/02/05 02:40:33;;;;;;;3.50;1.97;;;20.20;1.00;;;;;;2612042;39;20852;-61
2024/02/05 02:43:03;;;;;;;5.40;2.83;;;20.20;1.00;;;;;;2611600;47;20427;-61
2024/02/05 02:45:30;;;;;;;3.40;1.90;;;20.20;1.00;;;;;;2611742;54;20511;-61
2024/02/05 02:47:56;;;;;;;3.37;2.60;;;20.20;1.00;;;;;;2610910;54;20555;-61
2024/02/05 02:50:22;;;;;;;2.70;2.20;;;20.20;1.00;;;;;;2611798;54;20441;-61
2024/02/05 02:52:48;;;;;;;2.63;2.07;;;20.20;1.00;;;;;;2611980;39;21147;-61
2024/02/05 02:55:14;;;;;;;3.10;2.27;;;20.20;1.00;;;;;;2612941;54;20411;-61
2024/02/05 02:57:40;;;;;;;4.70;2.47;;;20.20;1.00;;;;;;2612631;54;20440;-61
2024/02/05 03:00:08;;;;;;;2.97;2.20;;;20.20;1.00;;;;;;2611563;54;20442;-61
2024/02/05 03:02:34;;;;;;;2.57;2.37;;;20.20;1.00;;;;;;2612713;54;20158;-61
2024/02/05 03:05:02;;;;;;;3.23;2.20;;;20.20;1.00;;;;;;2611716;54;20550;-61
2024/02/05 03:07:28;;;;;;;2.67;2.00;;;20.20;1.00;;;;;;2612458;54;20435;-61
2024/02/05 03:09:55;;;;;;;2.93;2.00;;;20.20;1.00;;;;;;2612108;54;20498;-61
2024/02/05 03:12:21;;;;;;;2.47;2.27;;;20.20;1.00;;;;;;2612673;54;20176;-67
2024/02/05 03:14:46;;;;;;;3.70;2.53;;;20.10;1.00;;;;;;2612404;54;20423;-65
2024/02/05 03:17:13;;;;;;;3.83;2.80;;;20.20;1.00;;;;;;2612918;54;20518;-66
2024/02/05 03:19:38;;;;;;;2.90;2.60;;;20.20;1.00;;;;;;2612299;54;20175;-66
2024/02/05 03:22:04;;;;;;;2.80;2.60;;;20.20;1.00;;;;;;2612517;47;21019;-65
2024/02/05 03:24:33;;;;;;;4.93;2.37;;;20.10;1.00;;;;;;2612935;54;20236;-66
2024/02/05 03:26:59;;;;;;;2.23;1.90;;;20.20;1.00;;;;;;2612881;39;20989;-66
2024/02/05 03:29:24;;;;;;;4.80;2.23;;;20.20;1.00;;;;;;2612696;51;20424;-66
2024/02/05 03:31:50;;;;;;;2.37;2.10;;;20.20;1.00;;;;;;2612320;54;20438;-65
2024/02/05 03:34:17;;;;;;;2.47;2.00;;;20.10;1.00;;;;;;2612388;54;20170;-64
2024/02/05 03:36:42;;;;;;;3.63;2.80;;;20.10;1.00;;;;;;2612642;54;20171;-65
2024/02/05 03:39:09;;;;;;;3.03;2.33;;;20.20;1.00;;;;;;2611429;54;21184;-67
2024/02/05 03:41:35;;;;;;;2.63;2.43;;;20.10;1.00;;;;;;2612915;47;20169;-59
2024/02/05 03:44:01;;;;;;;4.43;2.30;;;20.10;1.00;;;;;;2611953;47;20439;-59
2024/02/05 03:46:27;;;;;;;2.77;2.30;;;20.20;1.00;;;;;;2612775;54;20434;-58
2024/02/05 03:48:54;;;;;;;3.10;2.70;;;20.20;1.00;;;;;;2610874;54;20451;-59
2024/02/05 03:51:20;;;;;;;3.30;2.20;;;20.10;1.00;;;;;;2611243;46;20191;-58
2024/02/05 03:53:48;;;;;;;4.43;3.17;;;20.10;1.00;;;;;;2612291;47;20419;-59
2024/02/05 03:56:15;;;;;;;3.20;2.70;;;20.10;1.00;;;;;;2612337;54;20423;-59
2024/02/05 03:58:41;;;;;;;3.50;2.37;;;20.10;1.00;;;;;;2612449;54;20411;-59
2024/02/05 04:01:06;;;;;;;4.37;2.20;;;20.10;1.00;;;;;;2612672;47;20510;-58
2024/02/05 04:03:32;;;;;;;2.63;2.17;;;20.10;1.00;;;;;;2612504;54;20159;-65
2024/02/05 04:05:58;;;;;;;5.70;2.60;;;20.10;1.00;;;;;;2612634;54;20248;-65
2024/02/05 04:08:26;;;;;;;5.20;2.70;;;20.10;1.00;;;;;;2611299;47;20163;-66
2024/02/05 04:10:52;;;;;;;3.97;2.63;;;20.10;1.00;;;;;;2611465;54;20178;-65
2024/02/05 04:13:18;;;;;;;4.23;2.40;;;20.10;1.00;;;;;;2612128;39;20775;-65
2024/02/05 04:15:44;;;;;;;4.10;3.00;;;20.10;1.00;;;;;;2612777;54;20237;-64
2024/02/05 04:18:10;;;;;;;4.13;2.83;;;20.10;1.00;;;;;;2612288;39;20581;-64
2024/02/05 04:20:35;;;;;;;3.87;2.30;;;20.10;1.00;;;;;;2612034;54;20432;-65
2024/02/05 04:23:01;;;;;;;6.50;2.50;;;20.10;1.00;;;;;;2612678;54;20463;-61
2024/02/05 04:25:28;;;;;;;6.00;3.10;;;20.10;1.00;;;;;;2611641;47;20170;-61
2024/02/05 04:27:54;;;;;;;2.37;2.17;;;20.10;1.00;;;;;;2611746;54;20457;-61
2024/02/05 04:30:29;;;;;;;3.30;2.70;;;20.10;1.00;;;;;;2611778;54;21027;-61
2024/02/05 04:32:58;;;;;;;2.93;2.43;;;20.10;1.00;;;;;;2612268;54;20155;-61
2024/02/05 04:35:24;;;;;;;6.87;3.73;;;20.10;1.00;;;;;;2612416;31;20899;-60
2024/02/05 04:37:50;;;;;;;3.40;2.80;;;20.10;1.00;;;;;;2612215;54;20439;-62
2024/02/05 04:40:16;;;;;;;3.00;2.23;;;20.10;1.00;;;;;;2612319;54;20167;-60
2024/02/05 04:42:41;;;;;;;2.90;2.60;;;20.10;1.00;;;;;;2612182;54;20162;-61
2024/02/05 04:45:08;;;;;;;3.17;2.83;;;20.10;1.00;;;;;;2612076;54;20170;-60
2024/02/05 04:47:33;;;;;;;4.60;3.13;;;20.10;1.00;;;;;;2612328;39;20680;-61
2024/02/05 04:50:00;;;;;;;2.23;2.03;;;20.10;1.00;;;;;;2611758;54;20547;-62
2024/02/05 04:52:26;;;;;;;3.20;2.63;;;20.10;1.00;;;;;;2612777;54;20680;-72
2024/02/05 04:54:53;;;;;;;4.10;2.80;;;20.10;1.00;;;;;;2612520;54;20396;-72
2024/02/05 04:57:19;;;;;;;3.00;2.70;;;20.10;1.00;;;;;;2611925;54;20179;-72
2024/02/05 04:59:44;;;;;;;4.77;2.97;;;20.10;1.00;;;;;;2612180;54;20400;-72
2024/02/05 05:02:10;;;;;;;4.90;2.60;;;20.10;1.00;;;;;;2612926;47;20739;-73
2024/02/05 05:04:36;;;;;;;3.10;2.80;;;20.10;1.00;;;;;;2612142;54;20331;-72
2024/02/05 05:07:02;;;;;;;5.20;2.77;;;20.10;1.00;;;;;;2612495;47;20194;-72
2024/02/05 05:09:28;;;;;;;4.33;2.80;;;20.10;1.00;;;;;;2612759;54;20519;-72
2024/02/05 05:11:54;;;;;;;3.77;2.63;;;20.10;1.00;;;;;;2612645;54;20162;-65
2024/02/05 05:14:19;;;;;;;3.17;2.87;;;20.10;1.00;;;;;;2611656;50;20258;-65
2024/02/05 05:16:45;;;;;;;4.23;2.77;;;20.10;1.00;;;;;;2611478;39;20579;-65
2024/02/05 05:19:11;;;;;;;3.20;2.90;;;20.10;1.00;;;;;;2612683;47;20163;-66
2024/02/05 05:21:37;;;;;;;3.70;2.57;;;20.10;1.00;;;;;;2611800;39;20586;-66
2024/02/05 05:24:03;;;;;;;3.57;2.33;;;20.10;1.00;;;;;;2612042;47;20704;-66
2024/02/05 05:26:28;;;;;;;3.70;2.90;;;20.10;1.00;;;;;;2612575;39;20651;-66
2024/02/05 05:28:54;;;;;;;5.50;2.80;;;20.10;1.00;;;;;;2611932;51;20395;-66
2024/02/05 05:31:20;;;;;;;2.73;2.30;;;20.10;1.00;;;;;;2612528;54;20159;-72
2024/02/05 05:33:47;;;;;;;3.23;2.80;;;20.10;1.00;;;;;;2611699;54;20428;-59
2024/02/05 05:36:13;;;;;;;3.83;2.53;;;20.10;1.00;;;;;;2612733;39;20582;-59
2024/02/05 05:38:39;;;;;;;4.67;2.90;;;20.10;1.00;;;;;;2611521;50;20525;-58
2024/02/05 05:41:04;;;;;;;4.40;3.27;;;20.10;1.00;;;;;;2611905;54;20211;-59
2024/02/05 05:43:31;;;;;;;3.67;2.93;;;20.10;1.00;;;;;;2612276;54;20151;-59
2024/02/05 05:45:56;;;;;;;3.40;2.70;;;20.10;1.00;;;;;;2611690;54;20178;-59
2024/02/05 05:48:22;;;;;;;5.93;2.63;;;20.10;1.00;;;;;;2611914;54;21380;-59
2024/02/05 05:50:49;;;;;;;4.77;2.80;;;20.10;1.00;;;;;;2612163;54;20151;-58
2024/02/05 05:53:14;;;;;;;3.00;2.77;;;20.10;1.00;;;;;;2611806;47;20154;-60
2024/02/05 05:55:42;;;;;;;3.00;2.50;;;20.00;1.00;;;;;;2612761;39;20802;-59
2024/02/05 05:58:07;;;;;;;3.00;2.70;;;20.00;1.00;;;;;;2610469;54;20143;-59
2024/02/05 06:00:33;;;;;;;4.33;2.33;;;20.10;1.00;;;;;;2611564;47;20539;-60
2024/02/05 06:02:59;;;;;;;3.47;2.80;;;20.00;1.00;;;;;;2611656;54;20195;-61
2024/02/05 06:05:25;;;;;;;6.57;3.37;;;20.00;1.00;;;;;;2611890;54;20254;-62
2024/02/05 06:07:51;;;;;;;3.47;2.63;;;20.00;1.00;;;;;;2611990;54;20404;-62
2024/02/05 06:10:17;;;;;;;4.43;3.10;;;20.00;1.00;;;;;;2611347;54;20172;-62
2024/02/05 06:12:44;;;;;;;3.40;2.87;;;20.00;1.00;;;;;;2611597;54;20423;-61
2024/02/05 06:15:12;;;;;;;2.53;2.33;;;20.00;1.00;;;;;;2610405;47;20458;-62
2024/02/05 06:17:38;;;;;;;5.20;2.90;;;20.00;1.00;;;;;;2611781;51;20431;-62
2024/02/05 06:20:05;;;;;;;3.77;2.97;;;20.00;1.00;;;;;;2611890;47;21635;-62
2024/02/05 06:22:34;;;;;;;3.10;2.77;;;20.00;1.00;;;;;;2612455;54;20150;-61
2024/02/05 06:24:59;;;;;;;3.03;2.43;;;20.10;1.00;;;;;;2611826;54;20444;-62
2024/02/05 06:27:25;;;;;;;2.57;2.37;;;20.00;1.00;;;;;;2612323;39;20765;-62
2024/02/05 06:29:51;;;;;;;6.27;3.30;;;20.00;1.00;;;;;;2613939;39;20635;-62
2024/02/05 06:32:16;;;;;;;6.00;3.07;;;20.00;1.00;;;;;;2611975;54;20162;-62
2024/02/05 06:34:44;;;;;;;3.53;3.00;;;20.00;1.00;;;;;;2613280;54;20151;-62
2024/02/05 06:37:10;;;;;;;4.13;3.63;;;20.00;1.00;;;;;;2612249;54;20161;-62
2024/02/05 06:39:36;;;;;;;7.30;3.67;;;20.00;1.00;;;;;;2612574;54;20427;-64
2024/02/05 06:42:01;;;;;;;3.23;2.93;;;20.00;1.00;;;;;;2612749;54;20435;-62
2024/02/05 06:44:27;;;;;;;4.57;3.53;;;20.00;1.00;;;;;;2612253;54;20477;-61
2024/02/05 06:46:53;;;;;;;3.10;2.73;;;20.00;1.00;;;;;;2613350;39;20625;-63
2024/02/05 06:49:20;;;;;;;3.97;2.90;;;20.00;1.00;;;;;;2612607;54;20167;-62
2024/02/05 06:51:46;;;;;;;3.67;3.10;;;20.00;1.00;;;;;;2612302;54;20432;-62
2024/02/05 06:54:12;;;;;;;3.10;2.57;;;20.00;1.00;;;;;;2612542;54;20423;-63
2024/02/05 06:56:37;;;;;;;3.47;2.70;;;20.00;1.00;;;;;;2612204;54;20426;-63
2024/02/05 06:59:03;;;;;;;5.23;2.97;;;20.00;1.00;;;;;;2612755;39;20642;-62
2024/02/05 07:01:29;;;;;;;3.87;2.67;;;20.00;1.00;;;;;;2612974;54;20692;-63
2024/02/05 07:03:55;;;;;;;3.67;2.77;;;20.00;1.00;;;;;;2612600;54;21059;-61
2024/02/05 07:06:21;;;;;;;4.90;2.97;;;20.00;1.00;;;;;;2612387;54;20415;-62
2024/02/05 07:08:46;;;;;;;4.60;3.17;;;20.00;1.00;;;;;;2612482;54;20147;-63
2024/02/05 07:11:12;;;;;;;3.80;3.20;;;20.00;1.00;;;;;;2611946;54;20691;-62
2024/02/05 07:13:39;;;;;;;3.93;2.80;;;20.00;1.00;;;;;;2612202;54;20167;-59
2024/02/05 07:16:15;;;;;;;6.40;3.50;;;20.00;1.00;;;;;;2612935;54;20417;-59
2024/02/05 07:18:41;;;;;;;5.40;3.63;;;20.00;1.00;;;;;;2612291;54;20497;-58
2024/02/05 07:21:07;;;;;;;3.47;3.03;;;20.00;1.00;;;;;;2611713;54;20530;-59
2024/02/05 07:23:35;;;;;;;3.57;2.70;;;20.00;1.00;;;;;;2613216;39;20799;-59
2024/02/05 07:26:01;;;;;;;4.60;3.00;;;20.00;1.00;;;;;;2612532;54;20396;-59
2024/02/05 07:28:26;;;;;;;4.43;3.00;;;19.90;1.00;;;;;;2612297;54;20450;-59
2024/02/05 07:30:54;;;;;;;2.50;2.30;;;19.90;1.00;;;;;;2612438;54;20419;-59
2024/02/05 07:33:20;;;;;;;4.83;3.30;;;20.00;1.00;;;;;;2612560;54;20161;-58
2024/02/05 07:35:46;;;;;;;5.20;3.20;;;19.90;1.00;;;;;;2611871;54;20419;-58
2024/02/05 07:38:11;;;;;;;3.60;3.03;;;19.90;1.00;;;;;;2612089;54;20206;-59
2024/02/05 07:40:37;;;;;;;3.43;2.83;;;19.90;1.00;;;;;;2613002;47;20186;-59
2024/02/05 07:43:03;;;;;;;5.83;3.60;;;19.90;1.00;;;;;;2612011;47;20753;-59
2024/02/05 07:45:30;;;;;;;7.23;3.27;;;19.90;1.00;;;;;;2612411;54;20186;-59
2024/02/05 07:47:56;;;;;;;2.93;2.63;;;19.90;1.00;;;;;;2612254;54;20201;-58
2024/02/05 07:50:22;;;;;;;4.70;3.00;;;19.90;1.00;;;;;;2612055;54;20408;-58
2024/02/05 07:52:47;;;;;;;5.93;3.80;;;19.90;1.00;;;;;;2612073;54;20415;-59
2024/02/05 07:55:13;;;;;;;4.03;2.70;;;19.90;1.00;;;;;;2612161;47;20272;-59
2024/02/05 07:57:39;;;;;;;5.40;3.20;;;19.90;1.00;;;;;;2611833;54;20151;-59
2024/02/05 08:00:05;;;;;;;4.37;3.03;;;19.90;1.00;;;;;;2611794;54;20234;-60
2024/02/05 08:02:31;;;;;;;4.20;3.43;;;19.90;1.00;;;;;;2612479;54;20170;-59
2024/02/05 08:04:57;;;;;;;6.03;3.07;;;19.90;1.00;;;;;;2611992;54;20408;-59
2024/02/05 08:07:24;;;;;;;4.07;3.07;;;19.90;1.00;;;;;;2612112;54;20442;-61
2024/02/05 08:09:51;;;;;;;6.10;3.00;;;19.90;1.00;;;;;;2612500;51;20288;-59
2024/02/05 08:12:18;;;;;;;3.30;2.90;;;19.90;1.00;;;;;;2612081;54;20542;-60
2024/02/05 08:14:47;;;;;;;4.87;3.00;;;19.90;1.00;;;;;;2612370;54;20395;-60
2024/02/05 08:17:12;;;;;;;5.70;3.40;;;19.90;1.00;;;;;;2612181;54;20422;-60
2024/02/05 08:19:38;;;;;;;6.97;3.97;;;19.90;1.00;;;;;;2612887;39;20656;-60
2024/02/05 08:22:04;;;;;;;6.73;3.60;;;19.80;1.00;;;;;;2612439;54;20286;-61
2024/02/05 08:24:29;;;;;;;3.50;3.03;;;19.80;1.00;;;;;;2612021;54;20154;-61
2024/02/05 08:26:55;;;;;;;4.03;3.17;;;19.90;1.00;;;;;;2611753;54;20147;-59
2024/02/05 08:29:22;;;;;;;6.40;4.57;;;19.80;1.00;;;;;;2611606;47;20165;-61
2024/02/05 08:31:49;;;;;;;5.57;3.30;;;19.90;1.00;;;;;;2612752;47;20233;-61
2024/02/05 08:34:14;;;;;;;4.00;3.70;;;19.90;1.00;;;;;;2612975;31;21119;-61
2024/02/05 08:36:40;;;;;;;3.20;2.90;;;19.90;1.00;;;;;;2612055;54;20415;-60
2024/02/05 08:39:10;;;;;;;4.67;3.80;;;19.90;1.00;;;;;;2612538;54;20154;-60
2024/02/05 08:41:36;;;;;;;3.80;2.80;;;19.80;1.00;;;;;;2611886;54;20171;-58
2024/02/05 08:44:02;;;;;;;4.97;3.40;;;19.90;1.00;;;;;;2612797;54;20474;-60
2024/02/05 08:46:28;;;;;;;4.20;3.33;;;19.90;1.00;;;;;;2611775;54;20456;-59
2024/02/05 08:48:53;;;;;;;3.87;2.90;;;19.80;1.00;;;;;;2611940;54;20225;-59
2024/02/05 08:51:19;;;;;;;3.27;2.83;;;19.80;1.00;;;;;;2612358;54;20151;-58
2024/02/05 08:53:46;;;;;;;6.37;3.60;;;19.80;1.00;;;;;;2612083;54;20870;-58
2024/02/05 08:56:12;;;;;;;5.23;3.27;;;19.90;1.00;;;;;;2612620;50;20174;-59
2024/02/05 08:58:38;;;;;;;3.27;2.97;;;19.80;1.00;;;;;;2611035;54;20413;-57
2024/02/05 09:01:03;;;;;;;7.77;3.67;;;19.80;1.00;;;;;;2612497;54;20637;-59
2024/02/05 09:03:29;;;;;;;6.37;3.83;;;19.80;1.00;;;;;;2612171;54;20165;-60
2024/02/05 09:05:55;;;;;;;5.10;3.30;;;19.90;1.00;;;;;;2611937;54;20157;-60
2024/02/05 09:08:21;;;;;;;7.50;3.20;;;19.90;1.00;;;;;;2612205;54;20163;-60
2024/02/05 09:10:47;;;;;;;6.13;3.83;;;19.80;1.00;;;;;;2612214;54;20271;-60
2024/02/05 09:13:13;;;;;;;3.67;3.00;;;19.80;1.00;;;;;;2612319;54;20408;-60
2024/02/05 09:15:41;;;;;;;3.40;3.10;;;19.90;1.00;;;;;;2611809;54;20170;-61
2024/02/05 09:18:06;;;;;;;5.10;3.47;;;19.80;1.00;;;;;;2612445;51;20423;-60
2024/02/05 09:20:32;;;;;;;4.20;2.80;;;19.90;1.00;;;;;;2612927;54;20435;-61
2024/02/05 09:22:58;;;;;;;4.20;3.23;;;19.90;1.00;;;;;;2612778;54;20147;-59
2024/02/05 09:25:23;;;;;;;6.03;3.30;;;19.90;1.00;;;;;;2612212;54;20175;-60
2024/02/05 09:27:49;;;;;;;5.30;3.30;;;19.90;1.00;;;;;;2612251;54;20231;-61
2024/02/05 09:30:15;;;;;;;5.50;3.20;;;19.90;1.00;;;;;;2612778;54;20147;-61
2024/02/05 09:32:40;;;;;;;4.30;3.03;;;19.90;1.00;;;;;;2612522;54;20242;-61
2024/02/05 09:35:06;;;;;;;7.17;3.00;;;19.90;1.00;;;;;;2612688;54;20252;-61
2024/02/05 09:37:31;;;;;;;6.03;3.60;;;19.90;1.00;;;;;;2612179;47;20159;-60
2024/02/05 09:39:57;;;;;;;3.33;3.00;;;20.00;1.00;;;;;;2611979;54;20152;-61
2024/02/05 09:42:23;;;;;;;5.13;3.57;;;20.10;1.00;;;;;;2612636;54;20273;-61
2024/02/05 09:44:50;;;;;;;3.90;3.17;;;20.00;1.00;;;;;;2611776;54;20162;-61
2024/02/05 09:47:18;;;;;;;3.83;3.50;;;20.00;1.00;;;;;;2612450;54;20213;-62
2024/02/05 09:49:48;;;;;;;3.83;2.90;;;20.10;1.00;;;;;;2612082;54;20407;-62
2024/02/05 09:52:15;;;;;;;3.93;3.10;;;20.10;1.00;;;;;;2612450;54;20396;-59
2024/02/05 09:54:43;;;;;;;5.37;3.47;;;20.00;1.00;;;;;;2612484;54;20396;-58
2024/02/05 09:57:11;;;;;;;4.60;3.70;;;20.10;1.00;;;;;;2611579;54;20437;-60
2024/02/05 09:59:40;;;;;;;5.77;3.20;;;20.00;1.00;;;;;;2611401;54;20447;-58
2024/02/05 10:02:07;;;;;;;5.80;3.27;;;20.00;1.00;;;;;;2610717;54;20518;-58
2024/02/05 10:04:42;;;;;;;3.83;2.87;;;20.60;1.00;;;;;;2612450;54;20975;-58
2024/02/05 10:07:15;;;;;;;3.20;2.60;;;20.60;1.00;;;;;;2611858;54;20479;-60
2024/02/05 10:09:42;;;;;;;3.17;2.33;;;20.40;1.00;;;;;;2612386;54;20415;-59
2024/02/05 10:12:11;;;;;;;7.03;4.53;;;20.20;1.00;;;;;;2612219;54;20463;-60
2024/02/05 10:14:38;;;;;;;4.17;3.37;;;20.20;1.00;;;;;;2612438;39;20946;-59
2024/02/05 10:17:06;;;;;;;4.00;3.33;;;20.10;1.00;;;;;;2612081;54;21048;-60
2024/02/05 10:19:33;;;;;;;4.53;3.70;;;20.10;1.00;;;;;;2612378;47;20438;-59
2024/02/05 10:21:59;;;;;;;3.37;2.80;;;20.00;1.00;;;;;;2612309;54;20411;-60
2024/02/05 10:24:25;;;;;;;3.03;2.73;;;20.00;1.00;;;;;;2612291;54;20395;-59
2024/02/05 10:26:50;;;;;;;5.43;3.57;;;20.00;1.00;;;;;;2611839;47;20262;-59
2024/02/05 10:29:20;;;;;;;4.97;3.33;;;20.00;1.00;;;;;;2612359;47;20207;-59
2024/02/05 10:31:49;;;;;;;3.20;2.37;;;20.00;1.00;;;;;;2612700;39;20536;-58
2024/02/05 10:34:21;;;;;;;6.57;3.60;;;20.00;1.00;;;;;;2611786;54;20428;-59
2024/02/05 10:36:47;;;;;;;3.77;3.30;;;20.00;1.00;;;;;;2611636;54;21150;-59
2024/02/05 10:39:23;;;;;;;6.20;3.20;;;19.90;1.00;;;;;;2612153;54;20473;-59
2024/02/05 10:41:52;;;;;;;4.23;3.00;;;20.00;1.00;;;;;;2612399;54;20181;-66
2024/02/05 10:44:18;;;;;;;5.60;3.23;;;19.90;1.00;;;;;;2612146;54;20450;-66
2024/02/05 10:46:45;;;;;;;3.70;3.30;;;20.00;1.00;;;;;;2612187;54;20416;-67
2024/02/05 10:49:11;;;;;;;6.63;4.07;;;20.00;1.00;;;;;;2612517;47;20431;-65
2024/02/05 10:51:41;;;;;;;7.27;3.63;;;19.90;1.00;;;;;;2611589;54;21048;-66
2024/02/05 10:54:08;;;;;;;3.90;3.57;;;20.00;1.00;;;;;;2612320;54;20434;-65
2024/02/05 10:56:37;;;;;;;4.43;3.17;;;20.00;1.00;;;;;;2611588;39;20871;-66
2024/02/05 10:59:03;;;;;;;6.97;4.00;;;20.00;1.00;;;;;;2611804;54;20404;-67
2024/02/05 11:01:39;;;;;;;6.17;3.27;;;20.00;1.00;;;;;;2611470;54;20406;-60
2024/02/05 11:04:08;;;;;;;4.13;3.40;;;20.00;1.00;;;;;;2612172;54;20411;-58
2024/02/05 11:06:40;;;;;;;6.30;4.00;;;20.00;1.00;;;;;;2611973;54;20531;-59
2024/02/05 11:09:08;;;;;;;6.37;3.40;;;20.00;1.00;;;;;;2611567;47;20440;-58
2024/02/05 11:11:36;;;;;;;6.23;3.60;;;20.00;1.00;;;;;;2612611;39;20803;-58
2024/02/05 11:14:05;;;;;;;4.43;3.20;;;20.00;1.00;;;;;;2612527;54;20398;-59
2024/02/05 11:16:32;;;;;;;4.93;3.57;;;20.00;1.00;;;;;;2613624;31;20854;-59
2024/02/05 11:19:00;;;;;;;5.63;3.23;;;20.00;1.00;;;;;;2612769;54;20462;-59
2024/02/05 11:21:30;;;;;;;5.87;4.00;;;20.00;1.00;;;;;;2612844;50;20423;-59
2024/02/05 11:23:57;;;;;;;5.40;3.53;;;20.00;1.00;;;;;;2612974;54;20408;-60
2024/02/05 11:26:24;;;;;;;5.30;3.33;;;20.00;1.00;;;;;;2613124;54;20444;-61
2024/02/05 11:28:53;;;;;;;5.87;4.50;;;20.00;1.00;;;;;;2612607;54;20419;-61
2024/02/05 11:31:23;;;;;;;5.43;3.67;;;20.00;1.00;;;;;;2613036;54;20431;-59
2024/02/05 11:34:02;;;;;;;4.83;3.50;;;20.00;1.00;;;;;;2612364;47;20434;-60
2024/02/05 11:36:28;;;;;;;5.50;3.70;;;20.00;1.00;;;;;;2611518;54;20466;-60
2024/02/05 11:39:05;;;;;;;4.57;3.53;;;20.00;1.00;;;;;;2612742;47;20486;-61
2024/02/05 11:41:31;;;;;;;5.80;3.67;;;20.00;1.00;;;;;;2612650;54;20426;-60
2024/02/05 11:44:03;;;;;;;7.97;4.40;;;20.00;1.00;;;;;;2613289;47;20416;-60
2024/02/05 11:46:29;;;;;;;6.80;3.53;;;20.00;1.00;;;;;;2612580;54;20416;-60
2024/02/05 11:48:55;;;;;;;8.80;3.80;;;20.00;1.00;;;;;;2612427;47;20521;-60
2024/02/05 11:51:20;;;;;;;6.73;3.60;;;20.00;1.00;;;;;;2612999;39;20580;-61
2024/02/05 11:53:49;;;;;;;4.83;3.50;;;20.00;1.00;;;;;;2613608;31;20642;-58
2024/02/05 11:56:15;;;;;;;5.83;3.77;;;20.00;1.00;;;;;;2612939;47;20209;-58
2024/02/05 11:58:40;;;;;;;5.47;3.47;;;20.00;1.00;;;;;;2612232;54;20825;-58
2024/02/05 12:01:11;;;;;;;5.63;4.00;;;20.10;1.00;;;;;;2612413;54;20262;-58
2024/02/05 12:03:37;;;;;;;4.23;3.07;;;20.10;1.00;;;;;;2612462;31;20714;-58
2024/02/05 12:06:06;;;;;;;4.53;3.60;;;20.10;1.00;;;;;;2612557;54;20444;-58
2024/02/05 12:08:32;;;;;;;12.73;4.10;;;20.10;1.00;;;;;;2612255;54;20970;-59
2024/02/05 12:10:59;;;;;;;5.10;3.37;;;20.10;1.00;;;;;;2612305;54;20413;-59
2024/02/05 12:13:25;;;;;;;5.47;3.80;;;20.20;1.00;;;;;;2613039;54;20921;-66
2024/02/05 12:15:50;;;;;;;4.40;3.40;;;20.20;1.00;;;;;;2612558;54;20432;-65
2024/02/05 12:18:16;;;;;;;6.80;3.70;;;20.20;1.00;;;;;;2612612;54;20305;-66
2024/02/05 12:20:42;;;;;;;4.00;3.60;;;20.30;1.00;;;;;;2612703;54;20147;-66
2024/02/05 12:23:07;;;;;;;4.90;3.60;;;20.30;1.00;;;;;;2612839;54;20197;-65
2024/02/05 12:25:33;;;;;;;5.30;3.73;;;20.30;1.00;;;;;;2612868;54;20148;-67
2024/02/05 12:27:59;;;;;;;5.27;3.43;;;20.40;1.00;;;;;;2611648;54;20727;-65
2024/02/05 12:30:25;;;;;;;4.80;3.27;;;20.40;1.00;;;;;;2612365;54;20400;-66
2024/02/05 12:32:54;;;;;;;6.93;4.13;;;20.40;1.00;;;;;;2612766;54;20166;-61
2024/02/05 12:35:21;;;;;;;3.03;2.73;;;20.50;1.00;;;;;;2612542;54;20165;-61
2024/02/05 12:37:49;;;;;;;3.90;3.43;;;20.50;1.00;;;;;;2612311;47;20431;-61
2024/02/05 12:40:15;;;;;;;4.20;3.20;;;20.50;1.00;;;;;;2612612;54;20416;-61
2024/02/05 12:42:42;;;;;;;4.80;3.83;;;20.50;1.00;;;;;;2612844;47;20439;-61
2024/02/05 12:45:10;;;;;;;4.27;3.00;;;20.50;1.00;;;;;;2612216;47;20420;-60
2024/02/05 12:47:37;;;;;;;4.63;3.63;;;20.50;1.00;;;;;;2613066;54;20540;-61
2024/02/05 12:50:03;;;;;;;8.13;3.77;;;20.40;1.00;;;;;;2612219;54;20431;-61
2024/02/05 12:52:30;;;;;;;4.70;3.33;;;20.40;1.00;;;;;;2612667;54;20503;-61
2024/02/05 12:54:55;;;;;;;5.20;3.47;;;20.40;1.00;;;;;;2612400;54;20982;-61